Time;durP1;ratioP1;P1;durP2;ratioP2;P2;SDS_P1;SDS_P2;PMS_P1;PMS_P2;Temp;Humidity;BMP_temperature;BMP_pressure;BME280_temperature;BME280_humidity;BME280_pressure;Samples;Min_cycle;Max_cycle;Signal;HPM_P1;HPM_P2
2023/01/31 00:02:25;;;;;;;2.45;1.42;;;;;;;;;;5080664;28;20206;-65
2023/01/31 00:04:52;;;;;;;1.58;1.23;;;;;;;;;;5080977;28;20236;-65
2023/01/31 00:07:20;;;;;;;1.58;1.30;;;;;;;;;;5080449;28;20211;-65
2023/01/31 00:09:48;;;;;;;1.50;1.30;;;;;;;;;;5079767;28;20283;-65
2023/01/31 00:12:15;;;;;;;1.58;1.20;;;;;;;;;;5079396;28;20212;-65
2023/01/31 00:14:43;;;;;;;1.88;1.30;;;;;;;;;;5079412;28;20200;-65
2023/01/31 00:17:13;;;;;;;1.10;1.00;;;;;;;;;;5079277;28;20208;-64
2023/01/31 00:19:40;;;;;;;1.15;1.05;;;;;;;;;;5079366;28;20204;-64
2023/01/31 00:22:08;;;;;;;1.88;1.15;;;;;;;;;;5079769;28;20285;-64
2023/01/31 00:24:35;;;;;;;2.28;1.40;;;;;;;;;;5079022;28;20224;-62
2023/01/31 00:27:03;;;;;;;1.83;1.40;;;;;;;;;;5079633;28;20205;-62
2023/01/31 00:29:31;;;;;;;2.03;1.30;;;;;;;;;;5079348;28;20204;-62
2023/01/31 00:31:59;;;;;;;1.55;1.27;;;;;;;;;;5079447;28;20232;-63
2023/01/31 00:34:28;;;;;;;1.80;1.30;;;;;;;;;;5079224;28;20711;-62
2023/01/31 00:36:55;;;;;;;1.73;1.10;;;;;;;;;;5078925;28;20220;-62
2023/01/31 00:39:23;;;;;;;1.67;1.13;;;;;;;;;;5079616;28;20619;-62
2023/01/31 00:41:51;;;;;;;1.77;1.10;;;;;;;;;;5079311;28;20492;-62
2023/01/31 00:44:19;;;;;;;1.45;0.95;;;;;;;;;;5078453;28;20219;-62
2023/01/31 00:46:47;;;;;;;1.60;1.10;;;;;;;;;;5078692;28;20287;-62
2023/01/31 00:49:14;;;;;;;1.75;1.13;;;;;;;;;;5079547;28;20208;-62
2023/01/31 00:51:44;;;;;;;1.83;1.30;;;;;;;;;;5078936;28;20243;-62
2023/01/31 00:54:11;;;;;;;1.85;1.13;;;;;;;;;;5078911;28;20228;-62
2023/01/31 00:56:39;;;;;;;1.52;1.13;;;;;;;;;;5078985;28;20212;-62
2023/01/31 00:59:07;;;;;;;2.42;1.20;;;;;;;;;;5078893;28;20239;-62
2023/01/31 01:01:35;;;;;;;1.73;1.00;;;;;;;;;;5078562;28;20332;-62
2023/01/31 01:04:03;;;;;;;1.20;1.00;;;;;;;;;;5078835;28;20204;-62
2023/01/31 01:06:31;;;;;;;1.33;1.02;;;;;;;;;;5078864;28;20232;-62
2023/01/31 01:09:00;;;;;;;1.65;1.08;;;;;;;;;;5078777;28;20227;-63
2023/01/31 01:11:30;;;;;;;1.90;1.17;;;;;;;;;;5078522;28;20200;-61
2023/01/31 01:13:59;;;;;;;1.50;1.00;;;;;;;;;;5078798;28;20665;-62
2023/01/31 01:16:28;;;;;;;1.55;1.00;;;;;;;;;;5078324;28;20303;-63
2023/01/31 01:18:56;;;;;;;1.20;1.00;;;;;;;;;;5078837;28;20619;-62
2023/01/31 01:21:25;;;;;;;1.20;0.90;;;;;;;;;;5078699;28;20250;-62
2023/01/31 01:23:52;;;;;;;1.40;1.10;;;;;;;;;;5078417;28;20204;-62
2023/01/31 01:26:23;;;;;;;1.05;0.90;;;;;;;;;;5077714;28;20239;-62
2023/01/31 01:28:51;;;;;;;1.08;0.80;;;;;;;;;;5078849;28;20486;-62
2023/01/31 01:31:20;;;;;;;1.25;0.95;;;;;;;;;;5078440;28;20266;-62
2023/01/31 01:33:48;;;;;;;1.35;0.98;;;;;;;;;;5078511;28;20303;-62
2023/01/31 01:36:20;;;;;;;0.95;0.70;;;;;;;;;;5077770;28;20207;-62
2023/01/31 01:38:49;;;;;;;1.67;0.90;;;;;;;;;;5077720;28;20204;-62
2023/01/31 01:41:17;;;;;;;1.27;0.80;;;;;;;;;;5077800;28;20205;-62
2023/01/31 01:43:47;;;;;;;1.67;1.33;;;;;;;;;;5078299;28;20265;-62
2023/01/31 01:46:16;;;;;;;0.98;0.75;;;;;;;;;;5061722;28;20231;-62
2023/01/31 01:48:45;;;;;;;1.20;0.95;;;;;;;;;;5077898;28;20208;-62
2023/01/31 01:51:15;;;;;;;1.55;0.80;;;;;;;;;;5078071;28;20219;-62
2023/01/31 01:53:43;;;;;;;1.13;0.88;;;;;;;;;;5077379;28;20315;-62
2023/01/31 01:56:13;;;;;;;1.73;1.00;;;;;;;;;;5077576;28;20201;-62
2023/01/31 01:58:44;;;;;;;1.38;0.70;;;;;;;;;;5077678;28;20200;-62
2023/01/31 02:01:15;;;;;;;0.57;0.45;;;;;;;;;;5077781;28;20208;-62
2023/01/31 02:03:44;;;;;;;1.58;0.80;;;;;;;;;;5077388;28;20654;-63
2023/01/31 02:06:12;;;;;;;1.20;0.65;;;;;;;;;;5077005;28;20509;-62
2023/01/31 02:08:41;;;;;;;1.23;0.80;;;;;;;;;;5077332;28;20757;-62
2023/01/31 02:11:13;;;;;;;1.02;0.77;;;;;;;;;;5077499;28;20204;-62
2023/01/31 02:13:41;;;;;;;1.10;0.80;;;;;;;;;;5077468;28;20214;-62
2023/01/31 02:16:09;;;;;;;1.40;1.00;;;;;;;;;;5077643;28;20207;-62
2023/01/31 02:18:38;;;;;;;0.93;0.80;;;;;;;;;;5078501;28;20294;-62
2023/01/31 02:21:20;;;;;;;1.17;0.80;;;;;;;;;;5078097;28;20205;-62
2023/01/31 02:24:12;;;;;;;1.00;0.70;;;;;;;;;;5023671;28;20215;-62
2023/01/31 02:26:59;;;;;;;1.30;0.70;;;;;;;;;;5054281;28;20232;-62
2023/01/31 02:29:36;;;;;;;1.48;0.70;;;;;;;;;;5078069;28;20613;-62
2023/01/31 02:32:30;;;;;;;0.80;0.50;;;;;;;;;;5077775;28;20203;-62
2023/01/31 02:35:03;;;;;;;0.90;0.60;;;;;;;;;;5077453;28;20208;-62
2023/01/31 02:37:35;;;;;;;1.02;0.75;;;;;;;;;;5077358;28;20269;-62
2023/01/31 02:40:09;;;;;;;1.05;0.80;;;;;;;;;;5077775;28;20265;-62
2023/01/31 02:42:42;;;;;;;1.08;0.80;;;;;;;;;;5077506;28;20238;-62
2023/01/31 02:45:10;;;;;;;1.15;0.70;;;;;;;;;;5077687;28;20512;-62
2023/01/31 02:47:54;;;;;;;0.90;0.45;;;;;;;;;;5077817;28;20214;-62
2023/01/31 02:50:25;;;;;;;0.90;0.75;;;;;;;;;;5077924;28;20566;-62
2023/01/31 02:52:56;;;;;;;0.80;0.55;;;;;;;;;;5077421;28;20246;-62
2023/01/31 02:58:12;;;;;;;0.90;0.68;;;;;;;;;;5077770;28;20523;-62
2023/01/31 03:00:43;;;;;;;1.40;0.70;;;;;;;;;;5077521;28;20576;-62
2023/01/31 03:03:19;;;;;;;1.40;0.60;;;;;;;;;;5077771;28;20208;-62
2023/01/31 03:05:58;;;;;;;1.17;0.68;;;;;;;;;;5077600;28;20274;-62
2023/01/31 03:08:26;;;;;;;0.98;0.70;;;;;;;;;;5077630;28;20247;-62
2023/01/31 03:11:00;;;;;;;0.70;0.50;;;;;;;;;;5077349;28;20492;-62
2023/01/31 03:13:43;;;;;;;1.83;0.70;;;;;;;;;;5077517;28;20243;-62
2023/01/31 03:19:12;;;;;;;1.42;0.70;;;;;;;;;;5077260;28;20192;-62
2023/01/31 03:21:43;;;;;;;0.95;0.73;;;;;;;;;;5077077;28;20204;-62
2023/01/31 03:24:10;;;;;;;0.60;0.60;;;;;;;;;;5077691;28;20212;-62
2023/01/31 03:26:38;;;;;;;0.60;0.50;;;;;;;;;;5077038;28;20326;-62
2023/01/31 03:29:07;;;;;;;1.02;0.70;;;;;;;;;;5077219;28;20254;-62
2023/01/31 03:31:38;;;;;;;0.80;0.50;;;;;;;;;;5076495;28;20688;-62
2023/01/31 03:34:10;;;;;;;0.80;0.57;;;;;;;;;;5077328;28;20232;-62
2023/01/31 03:36:40;;;;;;;0.95;0.60;;;;;;;;;;5077240;28;20556;-62
2023/01/31 03:39:12;;;;;;;1.20;0.77;;;;;;;;;;5076970;28;20261;-62
2023/01/31 03:41:46;;;;;;;0.80;0.60;;;;;;;;;;5076554;28;20292;-62
2023/01/31 03:44:16;;;;;;;0.73;0.55;;;;;;;;;;5077157;28;20258;-62
2023/01/31 03:46:46;;;;;;;0.77;0.57;;;;;;;;;;5077117;28;20235;-62
2023/01/31 03:49:16;;;;;;;0.47;0.40;;;;;;;;;;5077102;28;20204;-62
2023/01/31 03:51:46;;;;;;;0.82;0.80;;;;;;;;;;5076481;28;20502;-62
2023/01/31 03:54:15;;;;;;;1.08;0.77;;;;;;;;;;5077099;28;20268;-62
2023/01/31 03:56:45;;;;;;;0.77;0.50;;;;;;;;;;5076656;28;20212;-62
2023/01/31 03:59:14;;;;;;;0.70;0.50;;;;;;;;;;5077157;28;20236;-61
2023/01/31 04:01:44;;;;;;;1.35;0.70;;;;;;;;;;5076871;28;20205;-62
2023/01/31 04:04:12;;;;;;;0.77;0.50;;;;;;;;;;5076706;28;20204;-62
2023/01/31 04:06:41;;;;;;;0.60;0.50;;;;;;;;;;5077018;28;20268;-62
2023/01/31 04:09:10;;;;;;;1.00;0.55;;;;;;;;;;5077092;28;20619;-62
2023/01/31 04:11:39;;;;;;;1.05;0.60;;;;;;;;;;5076549;28;20250;-62
2023/01/31 04:14:07;;;;;;;1.25;0.65;;;;;;;;;;5076608;28;20215;-61
2023/01/31 04:16:34;;;;;;;0.65;0.55;;;;;;;;;;5076938;28;20287;-62
2023/01/31 04:19:02;;;;;;;1.13;0.60;;;;;;;;;;5076410;28;20211;-61
2023/01/31 04:21:29;;;;;;;0.93;0.52;;;;;;;;;;5076759;28;20593;-62
2023/01/31 04:23:59;;;;;;;1.08;0.60;;;;;;;;;;5076638;28;20235;-62
2023/01/31 04:26:27;;;;;;;0.85;0.43;;;;;;;;;;5075696;28;20286;-62
2023/01/31 04:28:55;;;;;;;1.20;0.70;;;;;;;;;;5078015;28;20204;-62
2023/01/31 04:31:22;;;;;;;1.38;0.68;;;;;;;;;;5079952;28;20212;-62
2023/01/31 04:33:50;;;;;;;0.70;0.50;;;;;;;;;;5079768;28;20561;-61
2023/01/31 04:36:18;;;;;;;0.60;0.50;;;;;;;;;;5080012;28;20207;-62
2023/01/31 04:38:46;;;;;;;1.52;0.50;;;;;;;;;;5080316;28;20534;-62
2023/01/31 04:41:15;;;;;;;0.73;0.60;;;;;;;;;;5079878;28;20211;-62
2023/01/31 04:43:43;;;;;;;1.25;0.60;;;;;;;;;;5080198;28;20204;-61
2023/01/31 04:46:10;;;;;;;1.08;0.50;;;;;;;;;;5079499;28;20314;-62
2023/01/31 04:48:40;;;;;;;1.35;0.60;;;;;;;;;;5080142;28;20204;-61
2023/01/31 04:51:08;;;;;;;1.20;0.50;;;;;;;;;;5079869;28;20231;-62
2023/01/31 04:53:36;;;;;;;1.13;0.50;;;;;;;;;;5079846;28;20621;-62
2023/01/31 04:56:04;;;;;;;1.33;0.50;;;;;;;;;;5079489;28;20214;-62
2023/01/31 04:58:33;;;;;;;0.95;0.40;;;;;;;;;;5079066;28;20580;-61
2023/01/31 05:01:01;;;;;;;1.58;0.60;;;;;;;;;;5079738;28;20330;-62
2023/01/31 05:03:28;;;;;;;1.20;0.68;;;;;;;;;;5079229;28;20253;-62
2023/01/31 05:05:56;;;;;;;1.20;0.55;;;;;;;;;;5079117;28;20220;-62
2023/01/31 05:08:23;;;;;;;1.02;0.60;;;;;;;;;;5079399;28;20230;-62
2023/01/31 05:10:51;;;;;;;0.75;0.57;;;;;;;;;;5079064;28;20583;-62
2023/01/31 05:13:18;;;;;;;1.60;0.73;;;;;;;;;;5079409;28;20482;-62
2023/01/31 05:15:50;;;;;;;1.20;0.80;;;;;;;;;;5078270;28;20204;-62
2023/01/31 05:18:17;;;;;;;0.98;0.60;;;;;;;;;;5078843;28;20484;-61
2023/01/31 05:20:45;;;;;;;1.63;0.80;;;;;;;;;;5078772;28;20214;-62
2023/01/31 05:23:13;;;;;;;2.03;0.68;;;;;;;;;;5077979;28;20204;-62
2023/01/31 05:25:40;;;;;;;1.30;0.75;;;;;;;;;;5078195;28;20201;-62
2023/01/31 05:28:07;;;;;;;2.03;0.98;;;;;;;;;;5077905;28;20283;-62
2023/01/31 05:30:35;;;;;;;1.38;0.82;;;;;;;;;;5078693;28;20309;-62
2023/01/31 05:33:04;;;;;;;1.90;0.95;;;;;;;;;;5077883;28;20204;-62
2023/01/31 05:35:32;;;;;;;2.15;1.05;;;;;;;;;;5077274;28;20212;-62
2023/01/31 05:37:59;;;;;;;1.52;1.00;;;;;;;;;;5077328;28;20544;-62
2023/01/31 05:40:26;;;;;;;2.25;1.35;;;;;;;;;;5076472;28;20215;-62
2023/01/31 05:42:57;;;;;;;1.85;1.35;;;;;;;;;;5077625;28;20212;-62
2023/01/31 05:45:24;;;;;;;2.50;1.20;;;;;;;;;;5077123;28;20204;-62
2023/01/31 05:47:52;;;;;;;2.30;1.20;;;;;;;;;;5077236;28;20236;-62
2023/01/31 05:50:21;;;;;;;3.33;1.40;;;;;;;;;;5077070;28;20215;-62
2023/01/31 05:52:52;;;;;;;4.13;1.65;;;;;;;;;;5076448;28;20240;-62
2023/01/31 05:55:19;;;;;;;3.25;1.48;;;;;;;;;;5077180;28;20215;-61
2023/01/31 05:57:47;;;;;;;2.95;1.40;;;;;;;;;;5076540;28;20204;-62
2023/01/31 06:00:16;;;;;;;4.10;1.67;;;;;;;;;;5076567;28;20250;-62
2023/01/31 06:02:43;;;;;;;3.60;1.30;;;;;;;;;;5076076;28;20211;-61
2023/01/31 06:05:11;;;;;;;10.57;1.60;;;;;;;;;;5075679;28;20204;-62
2023/01/31 06:07:41;;;;;;;1.55;1.20;;;;;;;;;;5076421;28;20505;-61
2023/01/31 06:10:10;;;;;;;3.58;1.25;;;;;;;;;;5075428;28;20290;-61
2023/01/31 06:12:38;;;;;;;2.58;1.63;;;;;;;;;;5075427;28;20205;-61
2023/01/31 06:15:06;;;;;;;5.63;1.42;;;;;;;;;;5075186;28;20243;-62
2023/01/31 06:17:33;;;;;;;5.63;1.38;;;;;;;;;;5075454;28;20626;-62
2023/01/31 06:20:00;;;;;;;3.30;1.48;;;;;;;;;;5075131;28;20219;-62
2023/01/31 06:22:28;;;;;;;3.20;1.20;;;;;;;;;;5075005;28;20204;-62
2023/01/31 06:24:57;;;;;;;4.45;1.42;;;;;;;;;;5075657;28;20204;-62
2023/01/31 06:27:24;;;;;;;3.40;1.30;;;;;;;;;;5075544;28;20227;-61
2023/01/31 06:29:52;;;;;;;3.88;1.55;;;;;;;;;;5075973;28;20205;-62
2023/01/31 06:32:19;;;;;;;3.30;1.10;;;;;;;;;;5074437;28;20197;-62
2023/01/31 06:34:46;;;;;;;2.60;1.23;;;;;;;;;;5075304;28;20204;-62
2023/01/31 06:37:14;;;;;;;4.03;1.60;;;;;;;;;;5075405;28;20227;-62
2023/01/31 06:39:42;;;;;;;2.00;1.40;;;;;;;;;;5075188;28;20709;-62
2023/01/31 06:42:11;;;;;;;1.85;1.08;;;;;;;;;;5074968;28;20207;-62
2023/01/31 06:44:40;;;;;;;2.40;1.52;;;;;;;;;;5075666;28;20204;-62
2023/01/31 06:47:07;;;;;;;2.13;1.10;;;;;;;;;;5074472;28;20319;-62
2023/01/31 06:49:35;;;;;;;2.67;1.20;;;;;;;;;;5075613;28;20196;-62
2023/01/31 06:52:02;;;;;;;2.65;1.10;;;;;;;;;;5074633;28;20226;-62
2023/01/31 06:54:30;;;;;;;2.38;1.23;;;;;;;;;;5075230;28;20331;-62
2023/01/31 06:56:57;;;;;;;2.60;1.55;;;;;;;;;;5074758;28;20200;-62
2023/01/31 06:59:26;;;;;;;2.25;1.17;;;;;;;;;;5075149;28;20303;-62
2023/01/31 07:01:53;;;;;;;1.55;0.95;;;;;;;;;;5074624;28;20206;-62
2023/01/31 07:04:21;;;;;;;2.72;1.48;;;;;;;;;;5075598;28;20304;-61
2023/01/31 07:06:49;;;;;;;4.90;1.20;;;;;;;;;;5075195;28;20744;-61
2023/01/31 07:09:16;;;;;;;2.63;1.13;;;;;;;;;;5074674;28;20450;-61
2023/01/31 07:11:44;;;;;;;2.25;1.17;;;;;;;;;;5074210;28;20204;-62
2023/01/31 07:14:11;;;;;;;2.70;1.23;;;;;;;;;;5074989;28;20294;-62
2023/01/31 07:16:40;;;;;;;2.42;1.10;;;;;;;;;;5074836;28;20199;-62
2023/01/31 07:19:07;;;;;;;1.98;1.05;;;;;;;;;;5074686;28;20204;-62
2023/01/31 07:21:35;;;;;;;1.75;1.20;;;;;;;;;;5074795;28;20201;-62
2023/01/31 07:24:03;;;;;;;2.75;1.27;;;;;;;;;;5074596;28;20527;-62
2023/01/31 07:26:30;;;;;;;2.33;1.15;;;;;;;;;;5074483;28;20224;-62
2023/01/31 07:28:58;;;;;;;1.55;1.13;;;;;;;;;;5073996;28;20270;-62
2023/01/31 07:31:26;;;;;;;1.88;1.05;;;;;;;;;;5075294;28;20243;-62
2023/01/31 07:33:54;;;;;;;2.55;1.00;;;;;;;;;;5075238;28;20682;-62
2023/01/31 07:36:25;;;;;;;2.75;1.20;;;;;;;;;;5075507;28;20196;-62
2023/01/31 07:38:54;;;;;;;2.88;1.45;;;;;;;;;;5074951;28;20209;-62
2023/01/31 07:41:22;;;;;;;1.38;1.00;;;;;;;;;;5074634;28;20208;-62
2023/01/31 07:43:49;;;;;;;1.73;1.00;;;;;;;;;;5074684;28;20212;-62
2023/01/31 07:46:17;;;;;;;1.73;1.15;;;;;;;;;;5058469;28;20306;-62
2023/01/31 07:48:45;;;;;;;2.33;1.23;;;;;;;;;;5074125;28;20212;-62
2023/01/31 07:51:14;;;;;;;1.65;0.95;;;;;;;;;;5074099;28;20572;-62
2023/01/31 07:53:42;;;;;;;2.55;1.15;;;;;;;;;;5074464;28;20339;-62
2023/01/31 07:56:11;;;;;;;2.25;1.17;;;;;;;;;;5074838;28;20204;-62
2023/01/31 07:58:40;;;;;;;1.60;1.20;;;;;;;;;;5073898;28;20286;-62
2023/01/31 08:03:53;;;;;;;1.80;1.20;;;;;;;;;;5075782;28;20341;-62
2023/01/31 08:06:21;;;;;;;1.27;0.98;;;;;;;;;;5078560;28;20243;-62
2023/01/31 08:08:49;;;;;;;1.98;1.17;;;;;;;;;;5078529;28;20368;-62
2023/01/31 08:11:16;;;;;;;1.80;1.10;;;;;;;;;;5077998;28;20243;-62
2023/01/31 08:13:44;;;;;;;1.70;1.40;;;;;;;;;;5077302;28;20295;-62
2023/01/31 08:16:12;;;;;;;1.50;1.02;;;;;;;;;;5077603;28;20297;-62
2023/01/31 08:18:40;;;;;;;2.50;1.33;;;;;;;;;;5077224;28;20266;-62
2023/01/31 08:21:08;;;;;;;2.05;1.40;;;;;;;;;;5077283;28;20216;-62
2023/01/31 08:23:38;;;;;;;1.77;1.02;;;;;;;;;;5076581;28;20212;-62
2023/01/31 08:26:08;;;;;;;2.10;1.23;;;;;;;;;;5077434;28;20204;-62
2023/01/31 08:28:36;;;;;;;2.58;1.20;;;;;;;;;;5077024;28;20235;-62
2023/01/31 08:31:04;;;;;;;1.45;0.95;;;;;;;;;;5077459;28;20209;-62
2023/01/31 08:33:31;;;;;;;1.73;0.90;;;;;;;;;;5077512;28;20664;-62
2023/01/31 08:35:59;;;;;;;1.83;1.15;;;;;;;;;;5077419;28;20236;-62
2023/01/31 08:38:26;;;;;;;1.10;0.98;;;;;;;;;;5077465;28;20210;-62
2023/01/31 08:40:59;;;;;;;1.50;1.00;;;;;;;;;;5077517;28;20204;-62
2023/01/31 08:43:26;;;;;;;2.55;1.20;;;;;;;;;;5077705;28;20211;-62
2023/01/31 08:45:54;;;;;;;1.30;1.10;;;;;;;;;;5076657;28;20204;-62
2023/01/31 08:48:21;;;;;;;1.63;1.02;;;;;;;;;;5076248;28;20355;-62
2023/01/31 08:50:49;;;;;;;2.00;1.00;;;;;;;;;;5075875;28;20204;-62
2023/01/31 08:53:16;;;;;;;1.80;1.20;;;;;;;;;;5076839;28;20692;-62
2023/01/31 08:55:43;;;;;;;1.52;1.20;;;;;;;;;;5076789;28;20551;-62
2023/01/31 08:58:12;;;;;;;2.45;1.05;;;;;;;;;;5076923;28;20251;-61
2023/01/31 09:00:40;;;;;;;1.63;1.00;;;;;;;;;;5077130;28;20200;-62
2023/01/31 09:03:07;;;;;;;1.38;1.00;;;;;;;;;;5076728;28;20208;-62
2023/01/31 09:05:35;;;;;;;1.10;0.95;;;;;;;;;;5076770;28;20228;-62
2023/01/31 09:08:03;;;;;;;2.15;1.05;;;;;;;;;;5076932;28;20227;-62
2023/01/31 09:10:30;;;;;;;1.75;1.00;;;;;;;;;;5076727;28;20234;-62
2023/01/31 09:12:59;;;;;;;1.40;1.10;;;;;;;;;;5076488;28;20313;-62
2023/01/31 09:15:28;;;;;;;1.58;1.10;;;;;;;;;;5075998;28;20565;-62
2023/01/31 09:17:56;;;;;;;2.05;1.02;;;;;;;;;;5076753;28;20446;-61
2023/01/31 09:20:23;;;;;;;0.95;0.90;;;;;;;;;;5077242;28;20507;-62
2023/01/31 09:22:50;;;;;;;1.38;1.10;;;;;;;;;;5077018;28;20452;-62
2023/01/31 09:25:18;;;;;;;1.38;1.00;;;;;;;;;;5077284;28;20559;-62
2023/01/31 09:27:45;;;;;;;1.33;0.90;;;;;;;;;;5076136;28;20232;-62
2023/01/31 09:30:13;;;;;;;1.63;1.00;;;;;;;;;;5076678;28;20239;-62
2023/01/31 09:32:43;;;;;;;1.92;0.90;;;;;;;;;;5076879;28;20210;-62
2023/01/31 09:35:10;;;;;;;1.35;0.85;;;;;;;;;;5076385;28;20269;-62
2023/01/31 09:37:38;;;;;;;1.60;0.85;;;;;;;;;;5075889;28;20295;-62
2023/01/31 09:40:06;;;;;;;1.25;1.00;;;;;;;;;;5076132;28;20212;-62
2023/01/31 09:42:35;;;;;;;1.25;1.00;;;;;;;;;;5074994;28;20205;-62
2023/01/31 09:45:05;;;;;;;1.17;0.98;;;;;;;;;;5075954;28;20212;-61
2023/01/31 09:47:34;;;;;;;1.48;1.08;;;;;;;;;;5075548;28;20228;-62
2023/01/31 09:50:05;;;;;;;1.58;1.10;;;;;;;;;;5076184;28;20295;-62
2023/01/31 09:52:32;;;;;;;1.25;0.88;;;;;;;;;;5075945;28;20224;-62
2023/01/31 09:55:00;;;;;;;1.63;0.98;;;;;;;;;;5075678;28;20208;-61
2023/01/31 09:57:33;;;;;;;1.92;1.05;;;;;;;;;;5075624;28;20206;-62
2023/01/31 10:00:04;;;;;;;1.52;1.20;;;;;;;;;;5075280;28;20196;-62
2023/01/31 10:02:45;;;;;;;1.80;1.08;;;;;;;;;;5074748;28;20215;-62
2023/01/31 10:05:20;;;;;;;1.40;0.90;;;;;;;;;;5075594;28;20200;-62
2023/01/31 10:07:50;;;;;;;1.27;0.98;;;;;;;;;;5075148;28;20570;-62
2023/01/31 10:10:24;;;;;;;1.83;1.00;;;;;;;;;;5075257;28;20207;-62
2023/01/31 10:12:52;;;;;;;1.38;1.00;;;;;;;;;;5075241;28;20295;-62
2023/01/31 10:15:23;;;;;;;1.70;1.10;;;;;;;;;;5074916;28;20215;-62
2023/01/31 10:17:54;;;;;;;2.20;1.25;;;;;;;;;;5074256;28;20537;-62
2023/01/31 10:20:25;;;;;;;1.10;0.90;;;;;;;;;;5074747;28;20507;-62
2023/01/31 10:22:58;;;;;;;1.10;0.88;;;;;;;;;;5074900;28;20303;-62
2023/01/31 10:25:26;;;;;;;1.45;0.90;;;;;;;;;;5074773;28;20204;-62
2023/01/31 10:27:57;;;;;;;1.35;0.93;;;;;;;;;;5074812;28;20339;-62
2023/01/31 10:30:28;;;;;;;1.70;1.02;;;;;;;;;;5074439;28;20200;-62
2023/01/31 10:32:59;;;;;;;1.42;1.00;;;;;;;;;;5074686;28;20201;-62
2023/01/31 10:35:30;;;;;;;1.60;0.95;;;;;;;;;;5075017;28;20222;-62
2023/01/31 10:38:00;;;;;;;1.95;0.90;;;;;;;;;;5074725;28;20237;-62
2023/01/31 10:40:32;;;;;;;1.27;0.90;;;;;;;;;;5074503;28;20311;-62
2023/01/31 10:43:03;;;;;;;1.85;1.00;;;;;;;;;;5074709;28;20215;-62
2023/01/31 10:45:32;;;;;;;1.98;1.10;;;;;;;;;;5074235;28;20214;-62
2023/01/31 10:48:05;;;;;;;1.30;1.02;;;;;;;;;;5074646;28;20253;-61
2023/01/31 10:50:35;;;;;;;1.75;1.10;;;;;;;;;;5074174;28;20200;-62
2023/01/31 10:53:09;;;;;;;3.35;1.05;;;;;;;;;;5074568;28;20254;-62
2023/01/31 10:55:47;;;;;;;2.00;1.40;;;;;;;;;;5074045;28;20227;-61
2023/01/31 10:58:16;;;;;;;2.58;1.00;;;;;;;;;;5074233;28;20262;-61
2023/01/31 11:00:46;;;;;;;2.42;1.38;;;;;;;;;;5074476;28;20531;-61
2023/01/31 11:03:13;;;;;;;2.50;1.20;;;;;;;;;;5074472;28;20511;-61
2023/01/31 11:05:46;;;;;;;2.30;1.20;;;;;;;;;;5074444;28;20623;-61
2023/01/31 11:08:21;;;;;;;1.83;1.15;;;;;;;;;;5074337;28;20233;-62
2023/01/31 11:10:51;;;;;;;1.30;1.05;;;;;;;;;;5074257;28;20206;-62
2023/01/31 11:13:19;;;;;;;2.03;1.10;;;;;;;;;;5074124;28;20200;-62
2023/01/31 11:15:48;;;;;;;1.77;1.20;;;;;;;;;;5074421;28;20204;-62
2023/01/31 11:18:17;;;;;;;1.92;1.23;;;;;;;;;;5065832;28;20439;-62
2023/01/31 11:20:47;;;;;;;1.40;1.30;;;;;;;;;;5073893;28;20208;-62
2023/01/31 11:23:15;;;;;;;2.30;1.20;;;;;;;;;;5073666;28;20592;-61
2023/01/31 11:25:47;;;;;;;2.35;1.27;;;;;;;;;;5073548;28;20214;-62
2023/01/31 11:28:20;;;;;;;2.83;1.30;;;;;;;;;;5056591;28;20224;-62
2023/01/31 11:30:49;;;;;;;1.85;1.23;;;;;;;;;;5072691;28;20303;-62
2023/01/31 11:33:31;;;;;;;2.13;1.20;;;;;;;;;;5074001;28;20204;-62
2023/01/31 11:36:00;;;;;;;1.23;1.13;;;;;;;;;;5074071;28;20215;-62
2023/01/31 11:38:28;;;;;;;1.88;1.17;;;;;;;;;;5073797;28;20224;-62
2023/01/31 11:40:56;;;;;;;1.67;1.20;;;;;;;;;;5077149;28;20231;-62
2023/01/31 11:43:25;;;;;;;1.90;1.20;;;;;;;;;;5077305;28;20208;-62
2023/01/31 11:45:55;;;;;;;2.30;1.13;;;;;;;;;;5077357;28;20204;-62
2023/01/31 11:48:23;;;;;;;2.53;1.17;;;;;;;;;;5077396;28;20231;-62
2023/01/31 11:50:52;;;;;;;1.77;1.10;;;;;;;;;;5077345;28;20206;-63
2023/01/31 11:53:22;;;;;;;2.35;1.35;;;;;;;;;;5077147;28;20247;-62
2023/01/31 11:55:50;;;;;;;2.50;1.40;;;;;;;;;;5076532;28;20204;-62
2023/01/31 11:58:19;;;;;;;2.17;1.27;;;;;;;;;;5076825;28;20204;-62
2023/01/31 12:00:52;;;;;;;3.75;1.42;;;;;;;;;;5076773;28;20471;-62
2023/01/31 12:03:20;;;;;;;1.95;1.48;;;;;;;;;;5077026;28;20514;-62
2023/01/31 12:05:51;;;;;;;2.50;1.30;;;;;;;;;;5076379;28;20208;-62
2023/01/31 12:08:30;;;;;;;2.20;1.30;;;;;;;;;;5076075;28;20687;-62
2023/01/31 12:10:58;;;;;;;2.58;1.50;;;;;;;;;;5077013;28;20605;-62
2023/01/31 12:13:27;;;;;;;1.88;1.30;;;;;;;;;;5075390;28;20200;-62
2023/01/31 12:15:56;;;;;;;2.78;1.45;;;;;;;;;;5076427;28;20204;-62
2023/01/31 12:18:39;;;;;;;1.88;1.23;;;;;;;;;;5075944;28;20196;-62
2023/01/31 12:21:08;;;;;;;1.33;1.05;;;;;;;;;;5074738;28;20525;-62
2023/01/31 12:23:40;;;;;;;2.42;1.50;;;;;;;;;;5076378;28;20291;-62
2023/01/31 12:26:11;;;;;;;1.77;1.40;;;;;;;;;;5077251;28;20211;-62
2023/01/31 12:28:47;;;;;;;1.95;1.30;;;;;;;;;;5076085;28;20230;-63
2023/01/31 12:31:23;;;;;;;2.25;1.48;;;;;;;;;;5075467;28;20204;-62
2023/01/31 12:34:00;;;;;;;1.88;1.15;;;;;;;;;;5075980;28;20203;-62
2023/01/31 12:36:33;;;;;;;2.50;1.30;;;;;;;;;;5075209;28;20200;-62
2023/01/31 12:39:14;;;;;;;1.75;1.10;;;;;;;;;;5075129;28;20200;-62
2023/01/31 12:41:42;;;;;;;2.00;1.48;;;;;;;;;;5075938;28;20287;-62
2023/01/31 12:44:24;;;;;;;3.03;1.42;;;;;;;;;;5075614;28;20201;-62
2023/01/31 12:47:03;;;;;;;2.08;1.25;;;;;;;;;;5073661;28;20212;-62
2023/01/31 12:49:41;;;;;;;2.20;1.27;;;;;;;;;;5074975;28;20615;-62
2023/01/31 12:52:15;;;;;;;1.42;1.10;;;;;;;;;;5075345;28;20207;-62
2023/01/31 12:54:52;;;;;;;2.55;1.40;;;;;;;;;;5075294;28;20206;-62
2023/01/31 12:57:24;;;;;;;2.10;1.48;;;;;;;;;;5075007;28;20624;-62
2023/01/31 12:59:56;;;;;;;2.88;1.65;;;;;;;;;;5076153;28;20200;-62
2023/01/31 13:02:38;;;;;;;2.28;1.23;;;;;;;;;;5076188;28;20531;-62
2023/01/31 13:05:10;;;;;;;1.35;1.20;;;;;;;;;;5075827;28;20196;-62
2023/01/31 13:07:39;;;;;;;2.92;1.40;;;;;;;;;;5075158;28;20215;-62
2023/01/31 13:10:19;;;;;;;1.77;1.27;;;;;;;;;;5075733;28;20242;-62
2023/01/31 13:12:47;;;;;;;3.05;1.75;;;;;;;;;;5075638;28;20207;-62
2023/01/31 13:15:18;;;;;;;1.95;1.20;;;;;;;;;;5075960;28;20205;-62
2023/01/31 13:17:49;;;;;;;1.40;1.20;;;;;;;;;;5075338;28;20204;-62
2023/01/31 13:20:25;;;;;;;1.95;1.33;;;;;;;;;;5075358;28;20200;-64
2023/01/31 13:22:57;;;;;;;2.70;1.58;;;;;;;;;;5076029;28;20207;-64
2023/01/31 13:25:35;;;;;;;2.38;1.35;;;;;;;;;;5074969;28;20230;-63
2023/01/31 13:28:04;;;;;;;2.00;1.20;;;;;;;;;;5074850;28;20200;-63
2023/01/31 13:30:36;;;;;;;1.60;1.38;;;;;;;;;;5075535;28;20200;-63
2023/01/31 13:33:09;;;;;;;3.13;1.90;;;;;;;;;;5074338;28;20777;-63
2023/01/31 13:35:38;;;;;;;3.28;1.50;;;;;;;;;;5075130;28;20499;-63
2023/01/31 13:38:09;;;;;;;2.25;1.50;;;;;;;;;;5075039;28;20204;-63
2023/01/31 13:40:43;;;;;;;2.17;1.30;;;;;;;;;;5074575;28;20212;-63
2023/01/31 13:43:14;;;;;;;2.25;1.42;;;;;;;;;;5074876;28;20204;-63
2023/01/31 13:45:44;;;;;;;1.40;1.17;;;;;;;;;;5074568;28;20205;-63
2023/01/31 13:48:21;;;;;;;1.40;1.27;;;;;;;;;;5074253;28;20204;-62
2023/01/31 13:50:51;;;;;;;3.03;1.33;;;;;;;;;;5075190;28;20196;-62
2023/01/31 13:53:22;;;;;;;2.00;1.42;;;;;;;;;;5074195;28;20236;-62
2023/01/31 13:55:51;;;;;;;2.42;1.40;;;;;;;;;;5074409;28;20215;-62
2023/01/31 13:58:20;;;;;;;2.13;1.73;;;;;;;;;;5074869;28;20269;-62
2023/01/31 14:00:50;;;;;;;1.40;1.30;;;;;;;;;;5074109;28;20262;-62
2023/01/31 14:03:18;;;;;;;1.73;1.52;;;;;;;;;;5074114;28;20207;-62
2023/01/31 14:05:54;;;;;;;2.35;1.60;;;;;;;;;;5074186;28;20299;-62
2023/01/31 14:08:29;;;;;;;1.48;1.20;;;;;;;;;;5073421;28;20239;-62
2023/01/31 14:10:58;;;;;;;1.40;1.20;;;;;;;;;;5073072;28;20203;-62
2023/01/31 14:13:42;;;;;;;2.53;1.50;;;;;;;;;;5074576;28;20200;-62
2023/01/31 14:16:28;;;;;;;2.05;1.45;;;;;;;;;;5074690;28;20766;-63
2023/01/31 14:18:55;;;;;;;1.75;1.45;;;;;;;;;;5074666;28;20207;-63
2023/01/31 14:21:56;;;;;;;1.83;1.33;;;;;;;;;;5073236;28;20204;-63
2023/01/31 14:24:42;;;;;;;1.50;1.40;;;;;;;;;;5073033;28;20243;-62
2023/01/31 14:27:18;;;;;;;1.63;1.40;;;;;;;;;;5074162;28;20200;-62
2023/01/31 14:29:47;;;;;;;1.67;1.30;;;;;;;;;;5072684;28;20235;-63
2023/01/31 14:32:16;;;;;;;2.70;1.50;;;;;;;;;;5074111;28;20196;-63
2023/01/31 14:34:48;;;;;;;1.50;1.15;;;;;;;;;;5073375;28;20206;-63
2023/01/31 14:37:18;;;;;;;1.30;1.20;;;;;;;;;;5073542;28;20210;-62
2023/01/31 14:40:08;;;;;;;1.42;1.20;;;;;;;;;;5073085;28;20612;-62
2023/01/31 14:42:53;;;;;;;1.35;1.25;;;;;;;;;;5073727;28;20200;-62
2023/01/31 14:45:28;;;;;;;1.60;1.50;;;;;;;;;;5074590;28;20200;-62
2023/01/31 14:48:05;;;;;;;1.88;1.50;;;;;;;;;;5074631;28;20211;-63
2023/01/31 14:50:41;;;;;;;1.60;1.45;;;;;;;;;;5073884;28;20227;-62
2023/01/31 14:53:20;;;;;;;2.08;1.15;;;;;;;;;;5073638;28;20239;-62
2023/01/31 14:55:54;;;;;;;2.33;1.50;;;;;;;;;;5073945;28;20219;-63
2023/01/31 14:58:24;;;;;;;1.95;1.40;;;;;;;;;;5073425;28;20606;-63
2023/01/31 15:00:54;;;;;;;1.65;1.55;;;;;;;;;;5073829;28;20294;-63
2023/01/31 15:03:23;;;;;;;1.73;1.40;;;;;;;;;;5073353;28;20215;-62
2023/01/31 15:05:52;;;;;;;2.40;1.60;;;;;;;;;;5074245;28;20467;-62
2023/01/31 15:08:36;;;;;;;1.73;1.33;;;;;;;;;;5074259;28;20483;-63
2023/01/31 15:11:05;;;;;;;1.58;1.40;;;;;;;;;;5073972;28;20510;-63